sensor_id;sensor_type;location;lat;lon;timestamp;P1;durP1;ratioP1;P2;durP2;ratioP2
71125;SDS011;58785;55.566;38.058;2022-07-18T00:00:31;12.77;;;6.40;;
71125;SDS011;58785;55.566;38.058;2022-07-18T00:02:56;13.03;;;6.70;;
71125;SDS011;58785;55.566;38.058;2022-07-18T00:05:22;12.07;;;6.30;;
71125;SDS011;58785;55.566;38.058;2022-07-18T00:07:47;13.75;;;5.43;;
71125;SDS011;58785;55.566;38.058;2022-07-18T00:10:13;11.27;;;5.67;;
71125;SDS011;58785;55.566;38.058;2022-07-18T00:12:40;12.13;;;6.13;;
71125;SDS011;58785;55.566;38.058;2022-07-18T00:15:05;14.50;;;6.22;;
71125;SDS011;58785;55.566;38.058;2022-07-18T00:17:32;12.75;;;5.78;;
71125;SDS011;58785;55.566;38.058;2022-07-18T00:19:57;12.13;;;6.43;;
71125;SDS011;58785;55.566;38.058;2022-07-18T00:22:23;12.60;;;6.25;;
71125;SDS011;58785;55.566;38.058;2022-07-18T00:24:49;13.57;;;6.67;;
71125;SDS011;58785;55.566;38.058;2022-07-18T00:27:14;9.65;;;5.68;;
71125;SDS011;58785;55.566;38.058;2022-07-18T00:29:40;12.60;;;6.20;;
71125;SDS011;58785;55.566;38.058;2022-07-18T00:32:06;11.67;;;6.17;;
71125;SDS011;58785;55.566;38.058;2022-07-18T00:34:33;11.02;;;6.00;;
71125;SDS011;58785;55.566;38.058;2022-07-18T00:36:58;11.63;;;6.00;;
71125;SDS011;58785;55.566;38.058;2022-07-18T00:39:24;16.13;;;6.77;;
71125;SDS011;58785;55.566;38.058;2022-07-18T00:41:51;13.70;;;6.90;;
71125;SDS011;58785;55.566;38.058;2022-07-18T00:44:18;15.07;;;7.32;;
71125;SDS011;58785;55.566;38.058;2022-07-18T00:46:45;15.10;;;7.75;;
71125;SDS011;58785;55.566;38.058;2022-07-18T00:49:11;14.30;;;7.85;;
71125;SDS011;58785;55.566;38.058;2022-07-18T00:51:36;14.97;;;8.13;;
71125;SDS011;58785;55.566;38.058;2022-07-18T00:54:03;17.30;;;8.40;;
71125;SDS011;58785;55.566;38.058;2022-07-18T00:56:29;21.08;;;10.10;;
71125;SDS011;58785;55.566;38.058;2022-07-18T00:58:55;17.63;;;9.43;;
71125;SDS011;58785;55.566;38.058;2022-07-18T01:01:21;20.13;;;10.67;;
71125;SDS011;58785;55.566;38.058;2022-07-18T01:04:05;24.95;;;12.35;;
71125;SDS011;58785;55.566;38.058;2022-07-18T01:06:30;27.23;;;14.67;;
71125;SDS011;58785;55.566;38.058;2022-07-18T01:08:56;28.77;;;14.13;;
71125;SDS011;58785;55.566;38.058;2022-07-18T01:11:22;27.15;;;12.90;;
71125;SDS011;58785;55.566;38.058;2022-07-18T01:13:48;26.50;;;13.93;;
71125;SDS011;58785;55.566;38.058;2022-07-18T01:16:15;33.47;;;16.83;;
71125;SDS011;58785;55.566;38.058;2022-07-18T01:18:48;35.83;;;17.52;;
71125;SDS011;58785;55.566;38.058;2022-07-18T01:21:15;33.30;;;17.20;;
71125;SDS011;58785;55.566;38.058;2022-07-18T01:23:42;33.60;;;17.70;;
71125;SDS011;58785;55.566;38.058;2022-07-18T01:26:08;35.05;;;18.23;;
71125;SDS011;58785;55.566;38.058;2022-07-18T01:28:34;33.85;;;18.45;;
71125;SDS011;58785;55.566;38.058;2022-07-18T01:31:01;36.10;;;17.75;;
71125;SDS011;58785;55.566;38.058;2022-07-18T01:33:27;33.00;;;16.55;;
71125;SDS011;58785;55.566;38.058;2022-07-18T01:35:53;27.93;;;14.73;;
71125;SDS011;58785;55.566;38.058;2022-07-18T01:38:18;21.73;;;11.88;;
71125;SDS011;58785;55.566;38.058;2022-07-18T01:40:44;23.60;;;11.17;;
71125;SDS011;58785;55.566;38.058;2022-07-18T01:43:10;20.75;;;10.82;;
71125;SDS011;58785;55.566;38.058;2022-07-18T01:45:36;25.13;;;11.32;;
71125;SDS011;58785;55.566;38.058;2022-07-18T01:48:04;19.43;;;9.93;;
71125;SDS011;58785;55.566;38.058;2022-07-18T01:50:30;16.02;;;8.30;;
71125;SDS011;58785;55.566;38.058;2022-07-18T01:52:55;17.65;;;9.48;;
71125;SDS011;58785;55.566;38.058;2022-07-18T01:55:21;19.40;;;9.60;;
71125;SDS011;58785;55.566;38.058;2022-07-18T01:57:47;22.03;;;9.97;;
71125;SDS011;58785;55.566;38.058;2022-07-18T02:00:12;22.02;;;11.35;;
71125;SDS011;58785;55.566;38.058;2022-07-18T02:02:38;25.13;;;12.00;;
71125;SDS011;58785;55.566;38.058;2022-07-18T02:05:05;21.67;;;11.03;;
71125;SDS011;58785;55.566;38.058;2022-07-18T02:07:36;25.90;;;13.48;;
71125;SDS011;58785;55.566;38.058;2022-07-18T02:10:07;24.55;;;11.65;;
71125;SDS011;58785;55.566;38.058;2022-07-18T02:12:36;21.85;;;12.15;;
71125;SDS011;58785;55.566;38.058;2022-07-18T02:15:04;23.40;;;11.97;;
71125;SDS011;58785;55.566;38.058;2022-07-18T02:17:34;18.23;;;8.45;;
71125;SDS011;58785;55.566;38.058;2022-07-18T02:20:00;14.32;;;7.95;;
71125;SDS011;58785;55.566;38.058;2022-07-18T02:22:26;15.70;;;7.78;;
71125;SDS011;58785;55.566;38.058;2022-07-18T02:24:52;14.17;;;6.20;;
71125;SDS011;58785;55.566;38.058;2022-07-18T02:27:17;13.77;;;6.72;;
71125;SDS011;58785;55.566;38.058;2022-07-18T02:29:43;12.68;;;6.65;;
71125;SDS011;58785;55.566;38.058;2022-07-18T02:32:09;12.43;;;6.07;;
71125;SDS011;58785;55.566;38.058;2022-07-18T02:34:34;14.90;;;6.83;;
71125;SDS011;58785;55.566;38.058;2022-07-18T02:37:03;13.97;;;6.67;;
71125;SDS011;58785;55.566;38.058;2022-07-18T02:39:28;13.32;;;6.50;;
71125;SDS011;58785;55.566;38.058;2022-07-18T02:41:54;13.83;;;6.10;;
71125;SDS011;58785;55.566;38.058;2022-07-18T02:44:20;14.57;;;6.25;;
71125;SDS011;58785;55.566;38.058;2022-07-18T02:46:46;12.43;;;6.20;;
71125;SDS011;58785;55.566;38.058;2022-07-18T02:49:12;15.87;;;6.20;;
71125;SDS011;58785;55.566;38.058;2022-07-18T02:51:55;14.18;;;6.18;;
71125;SDS011;58785;55.566;38.058;2022-07-18T02:54:21;11.93;;;6.57;;
71125;SDS011;58785;55.566;38.058;2022-07-18T02:56:48;14.55;;;6.18;;
71125;SDS011;58785;55.566;38.058;2022-07-18T02:59:14;13.30;;;6.75;;
71125;SDS011;58785;55.566;38.058;2022-07-18T03:01:39;11.83;;;6.90;;
71125;SDS011;58785;55.566;38.058;2022-07-18T03:04:05;12.02;;;6.55;;
71125;SDS011;58785;55.566;38.058;2022-07-18T03:06:31;12.90;;;6.70;;
71125;SDS011;58785;55.566;38.058;2022-07-18T03:08:56;11.73;;;7.10;;
71125;SDS011;58785;55.566;38.058;2022-07-18T03:11:22;13.30;;;6.43;;
71125;SDS011;58785;55.566;38.058;2022-07-18T03:13:47;12.50;;;6.68;;
71125;SDS011;58785;55.566;38.058;2022-07-18T03:16:13;15.37;;;6.40;;
71125;SDS011;58785;55.566;38.058;2022-07-18T03:18:39;14.93;;;6.37;;
71125;SDS011;58785;55.566;38.058;2022-07-18T03:21:04;18.00;;;7.72;;
71125;SDS011;58785;55.566;38.058;2022-07-18T03:23:30;17.63;;;8.57;;
71125;SDS011;58785;55.566;38.058;2022-07-18T03:25:56;18.73;;;9.80;;
71125;SDS011;58785;55.566;38.058;2022-07-18T03:28:21;21.23;;;9.68;;
71125;SDS011;58785;55.566;38.058;2022-07-18T03:30:47;19.80;;;8.93;;
71125;SDS011;58785;55.566;38.058;2022-07-18T03:33:12;19.50;;;9.33;;
71125;SDS011;58785;55.566;38.058;2022-07-18T03:35:38;23.35;;;10.43;;
71125;SDS011;58785;55.566;38.058;2022-07-18T03:38:05;18.90;;;9.57;;
71125;SDS011;58785;55.566;38.058;2022-07-18T03:40:31;16.90;;;8.60;;
71125;SDS011;58785;55.566;38.058;2022-07-18T03:42:57;19.35;;;9.35;;
71125;SDS011;58785;55.566;38.058;2022-07-18T03:45:22;16.10;;;8.50;;
71125;SDS011;58785;55.566;38.058;2022-07-18T03:47:48;15.40;;;7.57;;
71125;SDS011;58785;55.566;38.058;2022-07-18T03:50:13;16.60;;;6.37;;
71125;SDS011;58785;55.566;38.058;2022-07-18T03:52:39;14.93;;;7.22;;
71125;SDS011;58785;55.566;38.058;2022-07-18T03:55:05;13.63;;;5.37;;
71125;SDS011;58785;55.566;38.058;2022-07-18T03:57:31;11.93;;;5.90;;
71125;SDS011;58785;55.566;38.058;2022-07-18T03:59:56;11.30;;;5.67;;
71125;SDS011;58785;55.566;38.058;2022-07-18T04:02:22;10.40;;;4.32;;
71125;SDS011;58785;55.566;38.058;2022-07-18T04:04:47;8.00;;;4.10;;
71125;SDS011;58785;55.566;38.058;2022-07-18T04:07:13;9.00;;;4.32;;
71125;SDS011;58785;55.566;38.058;2022-07-18T04:09:39;10.00;;;4.53;;
71125;SDS011;58785;55.566;38.058;2022-07-18T04:12:05;11.30;;;5.17;;
71125;SDS011;58785;55.566;38.058;2022-07-18T04:14:30;9.57;;;5.47;;
71125;SDS011;58785;55.566;38.058;2022-07-18T04:16:56;9.40;;;4.20;;
71125;SDS011;58785;55.566;38.058;2022-07-18T04:19:22;10.40;;;4.72;;
71125;SDS011;58785;55.566;38.058;2022-07-18T04:21:49;9.00;;;4.93;;
71125;SDS011;58785;55.566;38.058;2022-07-18T04:24:15;10.23;;;4.90;;
71125;SDS011;58785;55.566;38.058;2022-07-18T04:26:40;10.20;;;5.13;;
71125;SDS011;58785;55.566;38.058;2022-07-18T04:29:06;12.63;;;6.15;;
71125;SDS011;58785;55.566;38.058;2022-07-18T04:31:32;12.80;;;5.73;;
71125;SDS011;58785;55.566;38.058;2022-07-18T04:33:58;10.88;;;5.85;;
71125;SDS011;58785;55.566;38.058;2022-07-18T04:36:23;14.23;;;6.83;;
71125;SDS011;58785;55.566;38.058;2022-07-18T04:38:51;12.57;;;6.53;;
71125;SDS011;58785;55.566;38.058;2022-07-18T04:41:17;13.55;;;7.07;;
71125;SDS011;58785;55.566;38.058;2022-07-18T04:43:44;13.25;;;6.10;;
71125;SDS011;58785;55.566;38.058;2022-07-18T04:46:10;13.13;;;6.25;;
71125;SDS011;58785;55.566;38.058;2022-07-18T04:48:36;15.67;;;6.77;;
71125;SDS011;58785;55.566;38.058;2022-07-18T04:51:03;12.80;;;6.63;;
71125;SDS011;58785;55.566;38.058;2022-07-18T04:53:29;12.60;;;6.63;;
71125;SDS011;58785;55.566;38.058;2022-07-18T04:55:55;15.40;;;7.43;;
71125;SDS011;58785;55.566;38.058;2022-07-18T04:58:20;13.63;;;7.00;;
71125;SDS011;58785;55.566;38.058;2022-07-18T05:00:46;14.32;;;7.90;;
71125;SDS011;58785;55.566;38.058;2022-07-18T05:03:12;17.00;;;7.87;;
71125;SDS011;58785;55.566;38.058;2022-07-18T05:05:39;14.13;;;7.47;;
71125;SDS011;58785;55.566;38.058;2022-07-18T05:08:05;12.05;;;6.60;;
71125;SDS011;58785;55.566;38.058;2022-07-18T05:10:30;13.47;;;6.80;;
71125;SDS011;58785;55.566;38.058;2022-07-18T05:12:56;12.48;;;6.88;;
71125;SDS011;58785;55.566;38.058;2022-07-18T05:15:23;11.00;;;5.85;;
71125;SDS011;58785;55.566;38.058;2022-07-18T05:17:49;11.60;;;5.93;;
71125;SDS011;58785;55.566;38.058;2022-07-18T05:20:15;12.45;;;6.43;;
71125;SDS011;58785;55.566;38.058;2022-07-18T05:22:43;13.30;;;6.95;;
71125;SDS011;58785;55.566;38.058;2022-07-18T05:25:10;14.30;;;6.85;;
71125;SDS011;58785;55.566;38.058;2022-07-18T05:27:37;13.85;;;7.13;;
71125;SDS011;58785;55.566;38.058;2022-07-18T05:30:04;12.20;;;6.60;;
71125;SDS011;58785;55.566;38.058;2022-07-18T05:32:31;12.00;;;6.68;;
71125;SDS011;58785;55.566;38.058;2022-07-18T05:34:56;12.63;;;6.63;;
71125;SDS011;58785;55.566;38.058;2022-07-18T05:37:22;11.20;;;6.60;;
71125;SDS011;58785;55.566;38.058;2022-07-18T05:39:48;15.43;;;6.82;;
71125;SDS011;58785;55.566;38.058;2022-07-18T05:42:16;13.30;;;6.97;;
71125;SDS011;58785;55.566;38.058;2022-07-18T05:44:43;12.70;;;7.13;;
71125;SDS011;58785;55.566;38.058;2022-07-18T05:47:08;14.15;;;7.82;;
71125;SDS011;58785;55.566;38.058;2022-07-18T05:49:36;15.63;;;8.90;;
71125;SDS011;58785;55.566;38.058;2022-07-18T05:52:02;19.03;;;9.83;;
71125;SDS011;58785;55.566;38.058;2022-07-18T05:54:31;18.42;;;10.25;;
71125;SDS011;58785;55.566;38.058;2022-07-18T05:56:56;17.92;;;9.82;;
71125;SDS011;58785;55.566;38.058;2022-07-18T05:59:22;13.07;;;6.93;;
71125;SDS011;58785;55.566;38.058;2022-07-18T06:01:48;10.03;;;5.20;;
71125;SDS011;58785;55.566;38.058;2022-07-18T06:04:13;9.53;;;4.60;;
71125;SDS011;58785;55.566;38.058;2022-07-18T06:06:39;11.70;;;5.10;;
71125;SDS011;58785;55.566;38.058;2022-07-18T06:09:05;8.17;;;5.00;;
71125;SDS011;58785;55.566;38.058;2022-07-18T06:11:31;9.90;;;4.37;;
71125;SDS011;58785;55.566;38.058;2022-07-18T06:13:57;11.57;;;5.15;;
71125;SDS011;58785;55.566;38.058;2022-07-18T06:16:23;9.38;;;4.38;;
71125;SDS011;58785;55.566;38.058;2022-07-18T06:18:49;7.47;;;4.03;;
71125;SDS011;58785;55.566;38.058;2022-07-18T06:21:14;8.75;;;4.68;;
71125;SDS011;58785;55.566;38.058;2022-07-18T06:23:40;8.33;;;5.07;;
71125;SDS011;58785;55.566;38.058;2022-07-18T06:26:06;8.27;;;4.80;;
71125;SDS011;58785;55.566;38.058;2022-07-18T06:28:31;8.17;;;4.13;;
71125;SDS011;58785;55.566;38.058;2022-07-18T06:30:57;7.70;;;3.25;;
71125;SDS011;58785;55.566;38.058;2022-07-18T06:33:23;7.10;;;3.85;;
71125;SDS011;58785;55.566;38.058;2022-07-18T06:35:49;9.33;;;4.43;;
71125;SDS011;58785;55.566;38.058;2022-07-18T06:38:15;7.63;;;4.15;;
71125;SDS011;58785;55.566;38.058;2022-07-18T06:40:41;6.60;;;3.83;;
71125;SDS011;58785;55.566;38.058;2022-07-18T06:43:07;7.93;;;3.20;;
71125;SDS011;58785;55.566;38.058;2022-07-18T06:45:33;5.90;;;2.60;;
71125;SDS011;58785;55.566;38.058;2022-07-18T06:47:59;6.43;;;2.72;;
71125;SDS011;58785;55.566;38.058;2022-07-18T06:50:24;6.37;;;2.93;;
71125;SDS011;58785;55.566;38.058;2022-07-18T06:52:50;5.45;;;3.38;;
71125;SDS011;58785;55.566;38.058;2022-07-18T06:55:16;7.40;;;2.80;;
71125;SDS011;58785;55.566;38.058;2022-07-18T06:57:42;6.32;;;2.58;;
71125;SDS011;58785;55.566;38.058;2022-07-18T07:00:08;7.00;;;3.00;;
71125;SDS011;58785;55.566;38.058;2022-07-18T07:02:46;6.97;;;3.30;;
71125;SDS011;58785;55.566;38.058;2022-07-18T07:05:17;6.90;;;2.90;;
71125;SDS011;58785;55.566;38.058;2022-07-18T07:07:43;6.65;;;2.92;;
71125;SDS011;58785;55.566;38.058;2022-07-18T07:10:10;5.82;;;2.58;;
71125;SDS011;58785;55.566;38.058;2022-07-18T07:12:40;8.23;;;3.00;;
71125;SDS011;58785;55.566;38.058;2022-07-18T07:15:07;5.93;;;2.87;;
71125;SDS011;58785;55.566;38.058;2022-07-18T07:17:34;7.33;;;2.40;;
71125;SDS011;58785;55.566;38.058;2022-07-18T07:20:00;7.28;;;3.20;;
71125;SDS011;58785;55.566;38.058;2022-07-18T07:22:29;7.05;;;2.50;;
71125;SDS011;58785;55.566;38.058;2022-07-18T07:24:55;5.80;;;2.17;;
71125;SDS011;58785;55.566;38.058;2022-07-18T07:27:20;8.10;;;2.40;;
71125;SDS011;58785;55.566;38.058;2022-07-18T07:29:46;5.43;;;2.10;;
71125;SDS011;58785;55.566;38.058;2022-07-18T07:32:11;6.53;;;2.27;;
71125;SDS011;58785;55.566;38.058;2022-07-18T07:34:37;6.72;;;2.78;;
71125;SDS011;58785;55.566;38.058;2022-07-18T07:37:02;5.77;;;2.60;;
71125;SDS011;58785;55.566;38.058;2022-07-18T07:39:28;6.63;;;2.42;;
71125;SDS011;58785;55.566;38.058;2022-07-18T07:41:53;5.83;;;2.30;;
71125;SDS011;58785;55.566;38.058;2022-07-18T07:44:19;6.18;;;2.35;;
71125;SDS011;58785;55.566;38.058;2022-07-18T07:46:45;8.33;;;2.87;;
71125;SDS011;58785;55.566;38.058;2022-07-18T07:49:10;5.67;;;2.97;;
71125;SDS011;58785;55.566;38.058;2022-07-18T07:51:36;6.15;;;2.67;;
71125;SDS011;58785;55.566;38.058;2022-07-18T07:54:04;6.00;;;2.73;;
71125;SDS011;58785;55.566;38.058;2022-07-18T07:56:32;9.05;;;3.25;;
71125;SDS011;58785;55.566;38.058;2022-07-18T07:58:58;6.63;;;3.30;;
71125;SDS011;58785;55.566;38.058;2022-07-18T08:01:26;6.87;;;3.13;;
71125;SDS011;58785;55.566;38.058;2022-07-18T08:03:51;6.88;;;2.70;;
71125;SDS011;58785;55.566;38.058;2022-07-18T08:06:17;7.72;;;2.72;;
71125;SDS011;58785;55.566;38.058;2022-07-18T08:08:43;6.30;;;2.87;;
71125;SDS011;58785;55.566;38.058;2022-07-18T08:11:08;5.80;;;2.73;;
71125;SDS011;58785;55.566;38.058;2022-07-18T08:13:34;6.17;;;2.60;;
71125;SDS011;58785;55.566;38.058;2022-07-18T08:16:00;6.87;;;3.07;;
71125;SDS011;58785;55.566;38.058;2022-07-18T08:18:25;6.22;;;2.70;;
71125;SDS011;58785;55.566;38.058;2022-07-18T08:20:51;6.33;;;2.90;;
71125;SDS011;58785;55.566;38.058;2022-07-18T08:23:16;7.40;;;3.03;;
71125;SDS011;58785;55.566;38.058;2022-07-18T08:25:43;6.70;;;2.90;;
71125;SDS011;58785;55.566;38.058;2022-07-18T08:28:10;9.82;;;2.85;;
71125;SDS011;58785;55.566;38.058;2022-07-18T08:30:38;6.45;;;2.30;;
71125;SDS011;58785;55.566;38.058;2022-07-18T08:33:05;4.93;;;2.10;;
71125;SDS011;58785;55.566;38.058;2022-07-18T08:35:32;6.35;;;2.65;;
71125;SDS011;58785;55.566;38.058;2022-07-18T08:37:58;5.37;;;2.60;;
71125;SDS011;58785;55.566;38.058;2022-07-18T08:40:25;6.18;;;2.53;;
71125;SDS011;58785;55.566;38.058;2022-07-18T08:42:51;7.15;;;2.47;;
71125;SDS011;58785;55.566;38.058;2022-07-18T08:45:21;6.35;;;2.80;;
71125;SDS011;58785;55.566;38.058;2022-07-18T08:47:48;7.05;;;2.13;;
71125;SDS011;58785;55.566;38.058;2022-07-18T08:50:14;5.20;;;1.90;;
71125;SDS011;58785;55.566;38.058;2022-07-18T08:52:40;5.60;;;2.72;;
71125;SDS011;58785;55.566;38.058;2022-07-18T08:55:07;6.05;;;2.42;;
71125;SDS011;58785;55.566;38.058;2022-07-18T08:57:36;7.35;;;2.95;;
71125;SDS011;58785;55.566;38.058;2022-07-18T09:00:03;5.60;;;2.97;;
71125;SDS011;58785;55.566;38.058;2022-07-18T09:02:31;7.23;;;3.00;;
71125;SDS011;58785;55.566;38.058;2022-07-18T09:04:57;6.73;;;3.30;;
71125;SDS011;58785;55.566;38.058;2022-07-18T09:07:33;6.32;;;3.17;;
71125;SDS011;58785;55.566;38.058;2022-07-18T09:10:01;7.65;;;3.45;;
71125;SDS011;58785;55.566;38.058;2022-07-18T09:12:29;6.53;;;2.95;;
71125;SDS011;58785;55.566;38.058;2022-07-18T09:15:03;7.53;;;3.33;;
71125;SDS011;58785;55.566;38.058;2022-07-18T09:17:32;10.93;;;3.77;;
71125;SDS011;58785;55.566;38.058;2022-07-18T09:22:38;6.07;;;3.53;;
71125;SDS011;58785;55.566;38.058;2022-07-18T09:25:06;7.60;;;2.90;;
71125;SDS011;58785;55.566;38.058;2022-07-18T09:27:37;6.03;;;3.10;;
71125;SDS011;58785;55.566;38.058;2022-07-18T09:35:30;6.80;;;3.00;;
71125;SDS011;58785;55.566;38.058;2022-07-18T09:38:00;6.55;;;2.85;;
71125;SDS011;58785;55.566;38.058;2022-07-18T09:42:59;7.38;;;3.08;;
71125;SDS011;58785;55.566;38.058;2022-07-18T09:45:28;6.77;;;2.90;;
71125;SDS011;58785;55.566;38.058;2022-07-18T09:47:57;8.05;;;2.60;;
71125;SDS011;58785;55.566;38.058;2022-07-18T09:50:25;7.53;;;2.80;;
71125;SDS011;58785;55.566;38.058;2022-07-18T09:52:59;6.75;;;2.70;;
71125;SDS011;58785;55.566;38.058;2022-07-18T09:55:34;5.32;;;2.35;;
71125;SDS011;58785;55.566;38.058;2022-07-18T09:58:04;5.93;;;2.20;;
71125;SDS011;58785;55.566;38.058;2022-07-18T10:00:33;5.87;;;2.53;;
71125;SDS011;58785;55.566;38.058;2022-07-18T10:03:00;5.38;;;2.55;;
71125;SDS011;58785;55.566;38.058;2022-07-18T10:05:27;6.65;;;2.95;;
71125;SDS011;58785;55.566;38.058;2022-07-18T10:07:57;9.60;;;2.63;;
71125;SDS011;58785;55.566;38.058;2022-07-18T10:10:26;6.25;;;2.83;;
71125;SDS011;58785;55.566;38.058;2022-07-18T10:12:53;5.63;;;2.50;;
71125;SDS011;58785;55.566;38.058;2022-07-18T10:15:20;5.97;;;2.50;;
71125;SDS011;58785;55.566;38.058;2022-07-18T10:17:48;5.90;;;2.63;;
71125;SDS011;58785;55.566;38.058;2022-07-18T10:20:14;7.82;;;2.60;;
71125;SDS011;58785;55.566;38.058;2022-07-18T10:22:40;5.63;;;2.42;;
71125;SDS011;58785;55.566;38.058;2022-07-18T10:25:08;6.47;;;2.90;;
71125;SDS011;58785;55.566;38.058;2022-07-18T10:30:15;6.13;;;2.17;;
71125;SDS011;58785;55.566;38.058;2022-07-18T10:32:41;6.03;;;2.50;;
71125;SDS011;58785;55.566;38.058;2022-07-18T10:35:08;5.97;;;2.20;;
71125;SDS011;58785;55.566;38.058;2022-07-18T10:37:38;5.82;;;2.20;;
71125;SDS011;58785;55.566;38.058;2022-07-18T10:45:53;6.95;;;2.53;;
71125;SDS011;58785;55.566;38.058;2022-07-18T10:51:06;5.30;;;2.50;;
71125;SDS011;58785;55.566;38.058;2022-07-18T10:53:58;7.20;;;2.25;;
71125;SDS011;58785;55.566;38.058;2022-07-18T10:58:55;7.07;;;2.60;;
71125;SDS011;58785;55.566;38.058;2022-07-18T11:01:21;5.25;;;2.55;;
71125;SDS011;58785;55.566;38.058;2022-07-18T11:03:48;6.35;;;2.78;;
71125;SDS011;58785;55.566;38.058;2022-07-18T11:06:15;7.05;;;3.10;;
71125;SDS011;58785;55.566;38.058;2022-07-18T11:08:41;7.95;;;3.20;;
71125;SDS011;58785;55.566;38.058;2022-07-18T11:11:08;5.40;;;2.43;;
71125;SDS011;58785;55.566;38.058;2022-07-18T11:13:43;7.80;;;2.22;;
71125;SDS011;58785;55.566;38.058;2022-07-18T11:23:51;5.00;;;2.00;;
71125;SDS011;58785;55.566;38.058;2022-07-18T11:26:32;6.10;;;2.40;;
71125;SDS011;58785;55.566;38.058;2022-07-18T11:29:05;5.30;;;2.47;;
71125;SDS011;58785;55.566;38.058;2022-07-18T11:31:42;6.15;;;2.72;;
71125;SDS011;58785;55.566;38.058;2022-07-18T11:34:09;5.53;;;2.38;;
71125;SDS011;58785;55.566;38.058;2022-07-18T11:36:35;4.97;;;2.00;;
71125;SDS011;58785;55.566;38.058;2022-07-18T11:39:07;4.93;;;2.10;;
71125;SDS011;58785;55.566;38.058;2022-07-18T11:41:33;5.30;;;2.33;;
71125;SDS011;58785;55.566;38.058;2022-07-18T11:44:04;5.10;;;2.17;;
71125;SDS011;58785;55.566;38.058;2022-07-18T11:46:29;5.30;;;2.15;;
71125;SDS011;58785;55.566;38.058;2022-07-18T11:48:59;4.57;;;2.03;;
71125;SDS011;58785;55.566;38.058;2022-07-18T11:51:33;4.80;;;2.00;;
71125;SDS011;58785;55.566;38.058;2022-07-18T11:54:01;5.55;;;2.00;;
71125;SDS011;58785;55.566;38.058;2022-07-18T11:56:27;6.07;;;1.98;;
71125;SDS011;58785;55.566;38.058;2022-07-18T11:58:52;5.40;;;2.27;;
71125;SDS011;58785;55.566;38.058;2022-07-18T12:01:18;4.50;;;2.20;;
71125;SDS011;58785;55.566;38.058;2022-07-18T12:03:45;4.60;;;1.90;;
71125;SDS011;58785;55.566;38.058;2022-07-18T12:06:19;5.20;;;2.40;;
71125;SDS011;58785;55.566;38.058;2022-07-18T12:08:48;5.32;;;2.17;;
71125;SDS011;58785;55.566;38.058;2022-07-18T12:11:18;8.83;;;2.40;;
71125;SDS011;58785;55.566;38.058;2022-07-18T12:14:01;6.57;;;2.78;;
71125;SDS011;58785;55.566;38.058;2022-07-18T12:16:37;5.40;;;2.95;;
71125;SDS011;58785;55.566;38.058;2022-07-18T12:19:33;6.80;;;2.80;;
71125;SDS011;58785;55.566;38.058;2022-07-18T12:27:18;6.53;;;2.70;;
71125;SDS011;58785;55.566;38.058;2022-07-18T12:29:57;7.68;;;2.60;;
71125;SDS011;58785;55.566;38.058;2022-07-18T12:32:37;6.53;;;2.95;;
71125;SDS011;58785;55.566;38.058;2022-07-18T12:35:08;5.70;;;2.08;;
71125;SDS011;58785;55.566;38.058;2022-07-18T12:37:35;5.57;;;2.40;;
71125;SDS011;58785;55.566;38.058;2022-07-18T12:40:05;6.10;;;2.37;;
71125;SDS011;58785;55.566;38.058;2022-07-18T12:42:40;7.07;;;2.65;;
71125;SDS011;58785;55.566;38.058;2022-07-18T12:45:07;7.05;;;2.60;;
71125;SDS011;58785;55.566;38.058;2022-07-18T12:47:34;6.97;;;2.80;;
71125;SDS011;58785;55.566;38.058;2022-07-18T12:49:59;7.25;;;2.75;;
71125;SDS011;58785;55.566;38.058;2022-07-18T12:52:25;6.20;;;2.80;;
71125;SDS011;58785;55.566;38.058;2022-07-18T12:54:51;7.68;;;2.92;;
71125;SDS011;58785;55.566;38.058;2022-07-18T12:57:17;9.65;;;3.00;;
71125;SDS011;58785;55.566;38.058;2022-07-18T12:59:44;10.38;;;3.70;;
71125;SDS011;58785;55.566;38.058;2022-07-18T13:02:11;10.35;;;3.78;;
71125;SDS011;58785;55.566;38.058;2022-07-18T13:04:38;7.33;;;3.30;;
71125;SDS011;58785;55.566;38.058;2022-07-18T13:07:04;6.13;;;2.53;;
71125;SDS011;58785;55.566;38.058;2022-07-18T13:09:30;7.57;;;2.75;;
71125;SDS011;58785;55.566;38.058;2022-07-18T13:11:56;7.40;;;3.53;;
71125;SDS011;58785;55.566;38.058;2022-07-18T13:14:24;6.73;;;2.50;;
71125;SDS011;58785;55.566;38.058;2022-07-18T13:16:50;5.10;;;2.20;;
71125;SDS011;58785;55.566;38.058;2022-07-18T13:19:17;5.63;;;2.40;;
71125;SDS011;58785;55.566;38.058;2022-07-18T13:21:44;6.20;;;2.40;;
71125;SDS011;58785;55.566;38.058;2022-07-18T13:24:11;5.47;;;2.15;;
71125;SDS011;58785;55.566;38.058;2022-07-18T13:26:38;5.80;;;2.30;;
71125;SDS011;58785;55.566;38.058;2022-07-18T13:29:04;5.70;;;2.53;;
71125;SDS011;58785;55.566;38.058;2022-07-18T13:31:30;6.22;;;2.33;;
71125;SDS011;58785;55.566;38.058;2022-07-18T13:33:56;6.63;;;2.75;;
71125;SDS011;58785;55.566;38.058;2022-07-18T13:36:22;7.50;;;2.28;;
71125;SDS011;58785;55.566;38.058;2022-07-18T13:38:48;6.30;;;2.40;;
71125;SDS011;58785;55.566;38.058;2022-07-18T13:41:13;9.43;;;2.30;;
71125;SDS011;58785;55.566;38.058;2022-07-18T13:43:39;6.90;;;2.20;;
71125;SDS011;58785;55.566;38.058;2022-07-18T13:46:06;6.13;;;2.15;;
71125;SDS011;58785;55.566;38.058;2022-07-18T13:48:32;7.88;;;2.05;;
71125;SDS011;58785;55.566;38.058;2022-07-18T13:50:57;8.43;;;2.77;;
71125;SDS011;58785;55.566;38.058;2022-07-18T13:53:25;6.50;;;2.88;;
71125;SDS011;58785;55.566;38.058;2022-07-18T13:55:51;6.40;;;2.95;;
71125;SDS011;58785;55.566;38.058;2022-07-18T13:58:17;9.50;;;2.80;;
71125;SDS011;58785;55.566;38.058;2022-07-18T14:00:43;7.47;;;2.53;;
71125;SDS011;58785;55.566;38.058;2022-07-18T14:03:09;8.10;;;2.35;;
71125;SDS011;58785;55.566;38.058;2022-07-18T14:05:35;8.03;;;2.20;;
71125;SDS011;58785;55.566;38.058;2022-07-18T14:08:01;5.93;;;2.28;;
71125;SDS011;58785;55.566;38.058;2022-07-18T14:10:28;6.90;;;2.78;;
71125;SDS011;58785;55.566;38.058;2022-07-18T14:12:54;5.43;;;2.17;;
71125;SDS011;58785;55.566;38.058;2022-07-18T14:15:19;5.00;;;2.13;;
71125;SDS011;58785;55.566;38.058;2022-07-18T14:17:45;6.50;;;2.20;;
71125;SDS011;58785;55.566;38.058;2022-07-18T14:20:11;6.00;;;2.27;;
71125;SDS011;58785;55.566;38.058;2022-07-18T14:22:38;6.63;;;2.10;;
71125;SDS011;58785;55.566;38.058;2022-07-18T14:25:05;5.85;;;2.40;;
71125;SDS011;58785;55.566;38.058;2022-07-18T14:27:32;4.82;;;1.73;;
71125;SDS011;58785;55.566;38.058;2022-07-18T14:29:58;6.20;;;1.98;;
71125;SDS011;58785;55.566;38.058;2022-07-18T14:32:24;6.50;;;1.87;;
71125;SDS011;58785;55.566;38.058;2022-07-18T14:34:51;6.63;;;2.60;;
71125;SDS011;58785;55.566;38.058;2022-07-18T14:37:16;5.43;;;2.40;;
71125;SDS011;58785;55.566;38.058;2022-07-18T14:39:42;8.17;;;1.87;;
71125;SDS011;58785;55.566;38.058;2022-07-18T14:42:08;6.03;;;2.40;;
71125;SDS011;58785;55.566;38.058;2022-07-18T14:44:34;6.72;;;2.10;;
71125;SDS011;58785;55.566;38.058;2022-07-18T14:47:00;8.03;;;1.93;;
71125;SDS011;58785;55.566;38.058;2022-07-18T14:49:26;6.70;;;2.25;;
71125;SDS011;58785;55.566;38.058;2022-07-18T14:51:51;5.82;;;2.55;;
71125;SDS011;58785;55.566;38.058;2022-07-18T14:54:17;7.10;;;1.93;;
71125;SDS011;58785;55.566;38.058;2022-07-18T14:56:42;5.20;;;2.10;;
71125;SDS011;58785;55.566;38.058;2022-07-18T14:59:08;5.35;;;2.72;;
71125;SDS011;58785;55.566;38.058;2022-07-18T15:01:34;10.27;;;4.00;;
71125;SDS011;58785;55.566;38.058;2022-07-18T15:03:59;7.13;;;2.30;;